sensor_id;sensor_type;location;lat;lon;timestamp;P1;durP1;ratioP1;P2;durP2;ratioP2
47089;SDS011;32840;52.516;13.294;2022-11-20T00:02:42;17.50;;;10.88;;
47089;SDS011;32840;52.516;13.294;2022-11-20T00:05:27;26.23;;;11.95;;
47089;SDS011;32840;52.516;13.294;2022-11-20T00:08:12;18.48;;;10.20;;
47089;SDS011;32840;52.516;13.294;2022-11-20T00:10:57;19.35;;;11.40;;
47089;SDS011;32840;52.516;13.294;2022-11-20T00:13:47;23.35;;;11.38;;
47089;SDS011;32840;52.516;13.294;2022-11-20T00:16:34;17.10;;;10.18;;
47089;SDS011;32840;52.516;13.294;2022-11-20T00:19:19;18.92;;;10.75;;
47089;SDS011;32840;52.516;13.294;2022-11-20T00:22:03;15.75;;;9.77;;
47089;SDS011;32840;52.516;13.294;2022-11-20T00:24:48;19.80;;;11.00;;
47089;SDS011;32840;52.516;13.294;2022-11-20T00:27:33;17.67;;;10.43;;
47089;SDS011;32840;52.516;13.294;2022-11-20T00:30:18;17.25;;;9.70;;
47089;SDS011;32840;52.516;13.294;2022-11-20T00:33:03;20.48;;;10.70;;
47089;SDS011;32840;52.516;13.294;2022-11-20T00:35:48;20.00;;;10.48;;
47089;SDS011;32840;52.516;13.294;2022-11-20T00:38:33;18.13;;;11.00;;
47089;SDS011;32840;52.516;13.294;2022-11-20T00:41:19;17.73;;;10.25;;
47089;SDS011;32840;52.516;13.294;2022-11-20T00:44:04;19.75;;;10.77;;
47089;SDS011;32840;52.516;13.294;2022-11-20T00:46:49;16.85;;;10.55;;
47089;SDS011;32840;52.516;13.294;2022-11-20T00:49:34;18.35;;;10.50;;
47089;SDS011;32840;52.516;13.294;2022-11-20T00:52:19;22.10;;;11.00;;
47089;SDS011;32840;52.516;13.294;2022-11-20T00:55:04;18.15;;;10.10;;
47089;SDS011;32840;52.516;13.294;2022-11-20T00:57:49;15.27;;;9.70;;
47089;SDS011;32840;52.516;13.294;2022-11-20T01:00:34;17.00;;;10.27;;
47089;SDS011;32840;52.516;13.294;2022-11-20T01:03:19;18.05;;;10.55;;
47089;SDS011;32840;52.516;13.294;2022-11-20T01:06:05;20.48;;;10.90;;
47089;SDS011;32840;52.516;13.294;2022-11-20T01:08:55;18.35;;;10.70;;
47089;SDS011;32840;52.516;13.294;2022-11-20T01:11:42;17.20;;;10.65;;
47089;SDS011;32840;52.516;13.294;2022-11-20T01:14:27;18.50;;;10.98;;
47089;SDS011;32840;52.516;13.294;2022-11-20T01:17:12;19.23;;;10.73;;
47089;SDS011;32840;52.516;13.294;2022-11-20T01:19:57;17.83;;;10.80;;
47089;SDS011;32840;52.516;13.294;2022-11-20T01:22:42;18.40;;;11.38;;
47089;SDS011;32840;52.516;13.294;2022-11-20T01:25:27;20.00;;;10.70;;
47089;SDS011;32840;52.516;13.294;2022-11-20T01:28:12;21.15;;;11.55;;
47089;SDS011;32840;52.516;13.294;2022-11-20T01:30:57;18.85;;;11.10;;
47089;SDS011;32840;52.516;13.294;2022-11-20T01:33:42;19.90;;;11.27;;
47089;SDS011;32840;52.516;13.294;2022-11-20T01:36:29;20.27;;;11.50;;
47089;SDS011;32840;52.516;13.294;2022-11-20T01:39:18;18.63;;;11.23;;
47089;SDS011;32840;52.516;13.294;2022-11-20T01:42:06;20.00;;;10.97;;
47089;SDS011;32840;52.516;13.294;2022-11-20T01:48:38;22.17;;;12.02;;
47089;SDS011;32840;52.516;13.294;2022-11-20T01:54:19;18.20;;;11.32;;
47089;SDS011;32840;52.516;13.294;2022-11-20T01:57:08;19.60;;;12.02;;
47089;SDS011;32840;52.516;13.294;2022-11-20T01:59:57;17.50;;;10.88;;
47089;SDS011;32840;52.516;13.294;2022-11-20T02:02:48;14.03;;;8.03;;
47089;SDS011;32840;52.516;13.294;2022-11-20T02:09:00;21.88;;;12.07;;
47089;SDS011;32840;52.516;13.294;2022-11-20T02:11:44;20.63;;;11.80;;
47089;SDS011;32840;52.516;13.294;2022-11-20T02:14:29;20.00;;;12.38;;
47089;SDS011;32840;52.516;13.294;2022-11-20T02:17:15;22.00;;;12.23;;
47089;SDS011;32840;52.516;13.294;2022-11-20T02:20:00;21.15;;;12.07;;
47089;SDS011;32840;52.516;13.294;2022-11-20T02:22:52;23.25;;;12.48;;
47089;SDS011;32840;52.516;13.294;2022-11-20T02:25:38;20.80;;;11.82;;
47089;SDS011;32840;52.516;13.294;2022-11-20T02:28:26;19.80;;;12.32;;
47089;SDS011;32840;52.516;13.294;2022-11-20T02:31:11;24.00;;;11.95;;
47089;SDS011;32840;52.516;13.294;2022-11-20T02:33:56;22.85;;;12.73;;
47089;SDS011;32840;52.516;13.294;2022-11-20T02:36:42;20.98;;;12.40;;
47089;SDS011;32840;52.516;13.294;2022-11-20T02:39:27;22.58;;;12.68;;
47089;SDS011;32840;52.516;13.294;2022-11-20T02:42:13;20.63;;;12.25;;
47089;SDS011;32840;52.516;13.294;2022-11-20T02:44:58;21.95;;;12.40;;
47089;SDS011;32840;52.516;13.294;2022-11-20T02:47:43;22.85;;;11.95;;
47089;SDS011;32840;52.516;13.294;2022-11-20T02:50:28;22.65;;;12.60;;
47089;SDS011;32840;52.516;13.294;2022-11-20T02:53:13;22.25;;;12.77;;
47089;SDS011;32840;52.516;13.294;2022-11-20T02:55:58;26.90;;;13.40;;
47089;SDS011;32840;52.516;13.294;2022-11-20T02:58:43;21.90;;;13.23;;
47089;SDS011;32840;52.516;13.294;2022-11-20T03:01:28;23.65;;;13.07;;
47089;SDS011;32840;52.516;13.294;2022-11-20T03:04:13;20.70;;;12.10;;
47089;SDS011;32840;52.516;13.294;2022-11-20T03:06:58;21.60;;;12.95;;
47089;SDS011;32840;52.516;13.294;2022-11-20T03:09:43;20.63;;;12.55;;
47089;SDS011;32840;52.516;13.294;2022-11-20T03:12:28;24.60;;;13.63;;
47089;SDS011;32840;52.516;13.294;2022-11-20T03:15:13;25.40;;;14.18;;
47089;SDS011;32840;52.516;13.294;2022-11-20T03:17:58;22.48;;;13.15;;
47089;SDS011;32840;52.516;13.294;2022-11-20T03:20:43;23.10;;;13.48;;
47089;SDS011;32840;52.516;13.294;2022-11-20T03:23:28;20.15;;;11.77;;
47089;SDS011;32840;52.516;13.294;2022-11-20T03:26:16;26.17;;;14.15;;
47089;SDS011;32840;52.516;13.294;2022-11-20T03:29:03;23.42;;;13.48;;
47089;SDS011;32840;52.516;13.294;2022-11-20T03:31:49;22.85;;;13.23;;
47089;SDS011;32840;52.516;13.294;2022-11-20T03:34:34;26.10;;;14.30;;
47089;SDS011;32840;52.516;13.294;2022-11-20T03:37:19;25.10;;;13.52;;
47089;SDS011;32840;52.516;13.294;2022-11-20T03:40:04;20.17;;;12.27;;
47089;SDS011;32840;52.516;13.294;2022-11-20T03:42:49;24.08;;;13.30;;
47089;SDS011;32840;52.516;13.294;2022-11-20T03:45:34;26.58;;;13.73;;
47089;SDS011;32840;52.516;13.294;2022-11-20T03:48:19;24.08;;;13.65;;
47089;SDS011;32840;52.516;13.294;2022-11-20T03:53:53;21.38;;;13.43;;
47089;SDS011;32840;52.516;13.294;2022-11-20T03:56:39;22.55;;;13.27;;
47089;SDS011;32840;52.516;13.294;2022-11-20T03:59:24;22.55;;;13.40;;
47089;SDS011;32840;52.516;13.294;2022-11-20T04:02:09;20.52;;;12.85;;
47089;SDS011;32840;52.516;13.294;2022-11-20T04:04:54;24.77;;;13.90;;
47089;SDS011;32840;52.516;13.294;2022-11-20T04:07:39;26.52;;;14.00;;
47089;SDS011;32840;52.516;13.294;2022-11-20T04:10:24;23.42;;;14.27;;
47089;SDS011;32840;52.516;13.294;2022-11-20T04:13:09;23.67;;;13.77;;
47089;SDS011;32840;52.516;13.294;2022-11-20T04:15:56;23.23;;;13.90;;
47089;SDS011;32840;52.516;13.294;2022-11-20T04:18:42;24.80;;;13.95;;
47089;SDS011;32840;52.516;13.294;2022-11-20T04:21:27;23.45;;;13.38;;
47089;SDS011;32840;52.516;13.294;2022-11-20T04:24:13;24.13;;;13.60;;
47089;SDS011;32840;52.516;13.294;2022-11-20T04:26:58;24.92;;;14.18;;
47089;SDS011;32840;52.516;13.294;2022-11-20T04:29:43;24.02;;;14.00;;
47089;SDS011;32840;52.516;13.294;2022-11-20T04:32:28;22.90;;;13.27;;
47089;SDS011;32840;52.516;13.294;2022-11-20T04:35:13;21.85;;;13.05;;
47089;SDS011;32840;52.516;13.294;2022-11-20T04:37:58;24.50;;;13.68;;
47089;SDS011;32840;52.516;13.294;2022-11-20T04:40:43;24.40;;;13.82;;
47089;SDS011;32840;52.516;13.294;2022-11-20T04:43:28;25.30;;;13.43;;
47089;SDS011;32840;52.516;13.294;2022-11-20T04:46:13;24.42;;;13.60;;
47089;SDS011;32840;52.516;13.294;2022-11-20T04:48:58;22.58;;;13.13;;
47089;SDS011;32840;52.516;13.294;2022-11-20T04:51:43;24.25;;;13.48;;
47089;SDS011;32840;52.516;13.294;2022-11-20T04:54:28;23.17;;;13.75;;
47089;SDS011;32840;52.516;13.294;2022-11-20T04:57:14;22.70;;;13.02;;
47089;SDS011;32840;52.516;13.294;2022-11-20T04:59:59;25.38;;;14.23;;
47089;SDS011;32840;52.516;13.294;2022-11-20T05:02:44;27.90;;;14.90;;
47089;SDS011;32840;52.516;13.294;2022-11-20T05:05:29;24.90;;;13.13;;
47089;SDS011;32840;52.516;13.294;2022-11-20T05:08:14;24.60;;;13.85;;
47089;SDS011;32840;52.516;13.294;2022-11-20T05:11:09;22.08;;;13.40;;
47089;SDS011;32840;52.516;13.294;2022-11-20T05:13:57;25.20;;;13.70;;
47089;SDS011;32840;52.516;13.294;2022-11-20T05:16:43;25.40;;;14.32;;
47089;SDS011;32840;52.516;13.294;2022-11-20T05:19:28;27.52;;;14.77;;
47089;SDS011;32840;52.516;13.294;2022-11-20T05:22:12;25.02;;;13.48;;
47089;SDS011;32840;52.516;13.294;2022-11-20T05:24:57;24.42;;;13.63;;
47089;SDS011;32840;52.516;13.294;2022-11-20T05:27:42;23.65;;;13.60;;
47089;SDS011;32840;52.516;13.294;2022-11-20T05:30:27;24.88;;;14.10;;
47089;SDS011;32840;52.516;13.294;2022-11-20T05:33:12;25.50;;;13.65;;
47089;SDS011;32840;52.516;13.294;2022-11-20T05:35:58;25.00;;;13.82;;
47089;SDS011;32840;52.516;13.294;2022-11-20T05:38:43;25.38;;;13.85;;
47089;SDS011;32840;52.516;13.294;2022-11-20T05:41:28;23.77;;;14.18;;
47089;SDS011;32840;52.516;13.294;2022-11-20T05:44:13;27.50;;;14.32;;
47089;SDS011;32840;52.516;13.294;2022-11-20T05:46:58;21.88;;;12.73;;
47089;SDS011;32840;52.516;13.294;2022-11-20T05:49:43;23.77;;;13.48;;
47089;SDS011;32840;52.516;13.294;2022-11-20T05:52:28;23.90;;;13.07;;
47089;SDS011;32840;52.516;13.294;2022-11-20T05:55:13;23.67;;;13.15;;
47089;SDS011;32840;52.516;13.294;2022-11-20T05:57:58;24.13;;;13.90;;
47089;SDS011;32840;52.516;13.294;2022-11-20T06:00:43;26.15;;;13.50;;
47089;SDS011;32840;52.516;13.294;2022-11-20T06:03:28;25.92;;;13.80;;
47089;SDS011;32840;52.516;13.294;2022-11-20T06:06:13;23.17;;;13.73;;
47089;SDS011;32840;52.516;13.294;2022-11-20T06:08:59;23.63;;;12.52;;
47089;SDS011;32840;52.516;13.294;2022-11-20T06:11:44;23.67;;;13.55;;
47089;SDS011;32840;52.516;13.294;2022-11-20T06:14:29;22.85;;;13.23;;
47089;SDS011;32840;52.516;13.294;2022-11-20T06:17:14;24.70;;;13.90;;
47089;SDS011;32840;52.516;13.294;2022-11-20T06:19:58;22.90;;;12.48;;
47089;SDS011;32840;52.516;13.294;2022-11-20T06:22:43;24.98;;;13.65;;
47089;SDS011;32840;52.516;13.294;2022-11-20T06:25:28;25.40;;;13.93;;
47089;SDS011;32840;52.516;13.294;2022-11-20T06:28:13;25.13;;;13.80;;
47089;SDS011;32840;52.516;13.294;2022-11-20T06:30:58;24.92;;;13.52;;
47089;SDS011;32840;52.516;13.294;2022-11-20T06:33:43;24.90;;;14.07;;
47089;SDS011;32840;52.516;13.294;2022-11-20T06:36:28;27.25;;;15.30;;
47089;SDS011;32840;52.516;13.294;2022-11-20T06:39:13;26.27;;;14.60;;
47089;SDS011;32840;52.516;13.294;2022-11-20T06:41:58;26.65;;;13.75;;
47089;SDS011;32840;52.516;13.294;2022-11-20T06:44:43;26.60;;;14.38;;
47089;SDS011;32840;52.516;13.294;2022-11-20T06:47:28;28.30;;;14.38;;
47089;SDS011;32840;52.516;13.294;2022-11-20T06:50:13;24.38;;;14.15;;
47089;SDS011;32840;52.516;13.294;2022-11-20T06:53:01;22.27;;;13.38;;
47089;SDS011;32840;52.516;13.294;2022-11-20T06:55:48;24.83;;;13.80;;
47089;SDS011;32840;52.516;13.294;2022-11-20T06:58:34;24.55;;;14.43;;
47089;SDS011;32840;52.516;13.294;2022-11-20T07:01:20;21.90;;;13.65;;
47089;SDS011;32840;52.516;13.294;2022-11-20T07:04:05;25.75;;;14.13;;
47089;SDS011;32840;52.516;13.294;2022-11-20T07:06:50;26.15;;;14.85;;
47089;SDS011;32840;52.516;13.294;2022-11-20T07:09:35;26.85;;;14.23;;
47089;SDS011;32840;52.516;13.294;2022-11-20T07:12:19;25.27;;;13.98;;
47089;SDS011;32840;52.516;13.294;2022-11-20T07:15:04;31.02;;;14.52;;
47089;SDS011;32840;52.516;13.294;2022-11-20T07:17:50;23.50;;;14.07;;
47089;SDS011;32840;52.516;13.294;2022-11-20T07:20:34;24.77;;;13.63;;
47089;SDS011;32840;52.516;13.294;2022-11-20T07:23:19;26.25;;;14.85;;
47089;SDS011;32840;52.516;13.294;2022-11-20T07:26:08;25.23;;;14.40;;
47089;SDS011;32840;52.516;13.294;2022-11-20T07:28:54;25.88;;;13.98;;
47089;SDS011;32840;52.516;13.294;2022-11-20T07:31:39;26.55;;;14.52;;
47089;SDS011;32840;52.516;13.294;2022-11-20T07:34:24;24.08;;;13.73;;
47089;SDS011;32840;52.516;13.294;2022-11-20T07:37:09;24.98;;;14.00;;
47089;SDS011;32840;52.516;13.294;2022-11-20T07:39:54;24.75;;;13.98;;
47089;SDS011;32840;52.516;13.294;2022-11-20T07:42:39;26.88;;;14.30;;
47089;SDS011;32840;52.516;13.294;2022-11-20T07:45:31;24.45;;;14.70;;
47089;SDS011;32840;52.516;13.294;2022-11-20T07:48:16;26.08;;;14.57;;
47089;SDS011;32840;52.516;13.294;2022-11-20T07:51:01;30.85;;;15.40;;
47089;SDS011;32840;52.516;13.294;2022-11-20T07:53:46;27.98;;;14.70;;
47089;SDS011;32840;52.516;13.294;2022-11-20T07:56:31;23.27;;;13.95;;
47089;SDS011;32840;52.516;13.294;2022-11-20T07:59:16;24.60;;;13.85;;
47089;SDS011;32840;52.516;13.294;2022-11-20T08:02:01;25.20;;;14.00;;
47089;SDS011;32840;52.516;13.294;2022-11-20T08:04:46;26.65;;;14.95;;
47089;SDS011;32840;52.516;13.294;2022-11-20T08:07:40;26.67;;;14.95;;
47089;SDS011;32840;52.516;13.294;2022-11-20T08:10:27;25.75;;;14.75;;
47089;SDS011;32840;52.516;13.294;2022-11-20T08:13:12;24.83;;;13.63;;
47089;SDS011;32840;52.516;13.294;2022-11-20T08:16:15;23.05;;;13.10;;
47089;SDS011;32840;52.516;13.294;2022-11-20T08:19:00;24.85;;;14.07;;
47089;SDS011;32840;52.516;13.294;2022-11-20T08:21:45;26.67;;;15.48;;
47089;SDS011;32840;52.516;13.294;2022-11-20T08:24:30;24.17;;;14.52;;
47089;SDS011;32840;52.516;13.294;2022-11-20T08:27:15;29.20;;;15.52;;
47089;SDS011;32840;52.516;13.294;2022-11-20T08:30:00;28.42;;;16.08;;
47089;SDS011;32840;52.516;13.294;2022-11-20T08:32:45;27.70;;;15.40;;
47089;SDS011;32840;52.516;13.294;2022-11-20T08:35:33;28.48;;;15.95;;
47089;SDS011;32840;52.516;13.294;2022-11-20T08:38:19;27.13;;;15.48;;
47089;SDS011;32840;52.516;13.294;2022-11-20T08:41:04;26.55;;;15.45;;
47089;SDS011;32840;52.516;13.294;2022-11-20T08:44:08;28.20;;;15.82;;
47089;SDS011;32840;52.516;13.294;2022-11-20T08:46:52;28.70;;;16.20;;
47089;SDS011;32840;52.516;13.294;2022-11-20T08:49:37;28.52;;;15.63;;
47089;SDS011;32840;52.516;13.294;2022-11-20T08:52:23;28.15;;;15.30;;
47089;SDS011;32840;52.516;13.294;2022-11-20T08:55:08;26.33;;;15.30;;
47089;SDS011;32840;52.516;13.294;2022-11-20T08:57:53;24.00;;;15.32;;
47089;SDS011;32840;52.516;13.294;2022-11-20T09:00:39;29.25;;;16.95;;
47089;SDS011;32840;52.516;13.294;2022-11-20T09:03:24;29.70;;;15.25;;
47089;SDS011;32840;52.516;13.294;2022-11-20T09:06:11;28.40;;;14.93;;
47089;SDS011;32840;52.516;13.294;2022-11-20T09:08:56;30.77;;;17.10;;
47089;SDS011;32840;52.516;13.294;2022-11-20T09:11:41;31.30;;;16.33;;
47089;SDS011;32840;52.516;13.294;2022-11-20T09:14:26;27.30;;;15.73;;
47089;SDS011;32840;52.516;13.294;2022-11-20T09:17:13;31.67;;;15.55;;
47089;SDS011;32840;52.516;13.294;2022-11-20T09:19:59;27.60;;;15.60;;
47089;SDS011;32840;52.516;13.294;2022-11-20T09:22:44;24.98;;;14.85;;
47089;SDS011;32840;52.516;13.294;2022-11-20T09:25:29;28.42;;;15.68;;
47089;SDS011;32840;52.516;13.294;2022-11-20T09:28:14;26.60;;;15.43;;
47089;SDS011;32840;52.516;13.294;2022-11-20T09:31:00;28.25;;;14.50;;
47089;SDS011;32840;52.516;13.294;2022-11-20T09:33:49;24.92;;;14.35;;
47089;SDS011;32840;52.516;13.294;2022-11-20T09:36:34;24.27;;;14.52;;
47089;SDS011;32840;52.516;13.294;2022-11-20T09:39:19;28.90;;;14.85;;
47089;SDS011;32840;52.516;13.294;2022-11-20T09:51:16;26.63;;;14.98;;
47089;SDS011;32840;52.516;13.294;2022-11-20T09:54:22;26.05;;;15.05;;
47089;SDS011;32840;52.516;13.294;2022-11-20T09:57:14;25.85;;;14.02;;
47089;SDS011;32840;52.516;13.294;2022-11-20T10:00:19;23.92;;;14.35;;
47089;SDS011;32840;52.516;13.294;2022-11-20T10:05:58;27.52;;;16.13;;
47089;SDS011;32840;52.516;13.294;2022-11-20T10:08:47;23.92;;;13.45;;
47089;SDS011;32840;52.516;13.294;2022-11-20T10:12:00;23.70;;;13.70;;
47089;SDS011;32840;52.516;13.294;2022-11-20T10:18:05;24.13;;;13.80;;
47089;SDS011;32840;52.516;13.294;2022-11-20T10:24:28;26.45;;;13.93;;
47089;SDS011;32840;52.516;13.294;2022-11-20T10:30:30;27.58;;;15.43;;
47089;SDS011;32840;52.516;13.294;2022-11-20T10:33:24;25.45;;;14.27;;
47089;SDS011;32840;52.516;13.294;2022-11-20T10:36:19;27.50;;;14.23;;
47089;SDS011;32840;52.516;13.294;2022-11-20T10:39:22;28.55;;;15.25;;
47089;SDS011;32840;52.516;13.294;2022-11-20T10:42:37;26.33;;;14.45;;
47089;SDS011;32840;52.516;13.294;2022-11-20T10:48:39;24.75;;;13.30;;
47089;SDS011;32840;52.516;13.294;2022-11-20T10:51:34;23.30;;;12.75;;
47089;SDS011;32840;52.516;13.294;2022-11-20T10:54:36;22.23;;;13.43;;
47089;SDS011;32840;52.516;13.294;2022-11-20T10:57:40;23.83;;;14.07;;
47089;SDS011;32840;52.516;13.294;2022-11-20T11:00:38;23.25;;;13.85;;
47089;SDS011;32840;52.516;13.294;2022-11-20T11:03:26;25.67;;;13.75;;
47089;SDS011;32840;52.516;13.294;2022-11-20T11:06:25;23.20;;;13.32;;
47089;SDS011;32840;52.516;13.294;2022-11-20T11:09:24;22.10;;;12.88;;
47089;SDS011;32840;52.516;13.294;2022-11-20T11:12:17;23.52;;;13.68;;
47089;SDS011;32840;52.516;13.294;2022-11-20T11:15:05;20.05;;;12.27;;
47089;SDS011;32840;52.516;13.294;2022-11-20T11:17:57;19.75;;;12.38;;
47089;SDS011;32840;52.516;13.294;2022-11-20T11:20:49;21.25;;;12.05;;
47089;SDS011;32840;52.516;13.294;2022-11-20T11:23:38;21.90;;;12.45;;
47089;SDS011;32840;52.516;13.294;2022-11-20T11:26:24;20.40;;;11.52;;
47089;SDS011;32840;52.516;13.294;2022-11-20T11:29:15;24.75;;;14.60;;
47089;SDS011;32840;52.516;13.294;2022-11-20T11:32:12;18.85;;;11.73;;
47089;SDS011;32840;52.516;13.294;2022-11-20T11:35:05;25.13;;;14.15;;
47089;SDS011;32840;52.516;13.294;2022-11-20T11:37:51;18.13;;;11.63;;
47089;SDS011;32840;52.516;13.294;2022-11-20T11:40:39;21.05;;;11.27;;
47089;SDS011;32840;52.516;13.294;2022-11-20T11:43:26;18.80;;;11.38;;
47089;SDS011;32840;52.516;13.294;2022-11-20T11:46:32;19.42;;;11.45;;
47089;SDS011;32840;52.516;13.294;2022-11-20T11:49:19;19.92;;;11.50;;
47089;SDS011;32840;52.516;13.294;2022-11-20T11:54:53;17.95;;;11.00;;
47089;SDS011;32840;52.516;13.294;2022-11-20T12:01:00;19.45;;;10.90;;
47089;SDS011;32840;52.516;13.294;2022-11-20T12:04:34;21.33;;;11.52;;
47089;SDS011;32840;52.516;13.294;2022-11-20T12:16:38;19.00;;;11.45;;
47089;SDS011;32840;52.516;13.294;2022-11-20T12:19:23;19.75;;;11.85;;
47089;SDS011;32840;52.516;13.294;2022-11-20T12:25:27;19.13;;;10.10;;
47089;SDS011;32840;52.516;13.294;2022-11-20T12:43:27;17.95;;;9.23;;
47089;SDS011;32840;52.516;13.294;2022-11-20T12:46:41;15.38;;;9.05;;
47089;SDS011;32840;52.516;13.294;2022-11-20T12:49:35;14.52;;;9.40;;
47089;SDS011;32840;52.516;13.294;2022-11-20T13:01:34;16.25;;;10.02;;
47089;SDS011;32840;52.516;13.294;2022-11-20T13:07:20;14.73;;;9.00;;
47089;SDS011;32840;52.516;13.294;2022-11-20T13:13:51;15.40;;;9.60;;
47089;SDS011;32840;52.516;13.294;2022-11-20T13:16:50;21.08;;;11.32;;
47089;SDS011;32840;52.516;13.294;2022-11-20T13:19:40;18.13;;;10.55;;
47089;SDS011;32840;52.516;13.294;2022-11-20T13:25:31;16.67;;;10.13;;
47089;SDS011;32840;52.516;13.294;2022-11-20T13:31:09;18.73;;;10.02;;
47089;SDS011;32840;52.516;13.294;2022-11-20T13:34:27;15.55;;;9.80;;
47089;SDS011;32840;52.516;13.294;2022-11-20T13:37:35;17.05;;;9.85;;
47089;SDS011;32840;52.516;13.294;2022-11-20T13:40:25;17.27;;;9.88;;
47089;SDS011;32840;52.516;13.294;2022-11-20T13:46:44;16.95;;;8.38;;
47089;SDS011;32840;52.516;13.294;2022-11-20T13:49:32;22.55;;;15.63;;
47089;SDS011;32840;52.516;13.294;2022-11-20T13:58:54;16.65;;;9.57;;
47089;SDS011;32840;52.516;13.294;2022-11-20T14:04:58;17.77;;;9.60;;
47089;SDS011;32840;52.516;13.294;2022-11-20T14:08:00;15.88;;;8.88;;
47089;SDS011;32840;52.516;13.294;2022-11-20T14:11:01;15.30;;;8.77;;
47089;SDS011;32840;52.516;13.294;2022-11-20T14:13:58;15.18;;;8.75;;
47089;SDS011;32840;52.516;13.294;2022-11-20T14:16:51;16.15;;;9.98;;
47089;SDS011;32840;52.516;13.294;2022-11-20T14:19:51;16.55;;;9.55;;
47089;SDS011;32840;52.516;13.294;2022-11-20T14:22:38;15.75;;;9.05;;
47089;SDS011;32840;52.516;13.294;2022-11-20T14:25:25;14.40;;;8.75;;
47089;SDS011;32840;52.516;13.294;2022-11-20T14:28:20;16.75;;;9.48;;
47089;SDS011;32840;52.516;13.294;2022-11-20T14:31:15;15.40;;;8.95;;
47089;SDS011;32840;52.516;13.294;2022-11-20T14:34:13;16.00;;;10.00;;
47089;SDS011;32840;52.516;13.294;2022-11-20T14:37:20;22.75;;;14.82;;
47089;SDS011;32840;52.516;13.294;2022-11-20T14:40:22;18.55;;;11.40;;
47089;SDS011;32840;52.516;13.294;2022-11-20T14:43:21;19.85;;;12.35;;
47089;SDS011;32840;52.516;13.294;2022-11-20T14:46:08;17.40;;;9.48;;
47089;SDS011;32840;52.516;13.294;2022-11-20T14:48:57;16.65;;;9.40;;
47089;SDS011;32840;52.516;13.294;2022-11-20T14:51:45;22.60;;;12.48;;
47089;SDS011;32840;52.516;13.294;2022-11-20T14:54:30;26.77;;;15.85;;
47089;SDS011;32840;52.516;13.294;2022-11-20T15:02:59;17.80;;;10.50;;
47089;SDS011;32840;52.516;13.294;2022-11-20T15:05:44;17.50;;;9.13;;
47089;SDS011;32840;52.516;13.294;2022-11-20T15:08:31;17.13;;;9.75;;
47089;SDS011;32840;52.516;13.294;2022-11-20T15:11:37;21.48;;;11.73;;
47089;SDS011;32840;52.516;13.294;2022-11-20T15:14:21;16.77;;;10.48;;
47089;SDS011;32840;52.516;13.294;2022-11-20T15:17:07;19.55;;;11.65;;
47089;SDS011;32840;52.516;13.294;2022-11-20T15:19:55;18.75;;;10.32;;
47089;SDS011;32840;52.516;13.294;2022-11-20T15:22:41;14.63;;;8.80;;
47089;SDS011;32840;52.516;13.294;2022-11-20T15:25:26;20.38;;;12.27;;
47089;SDS011;32840;52.516;13.294;2022-11-20T15:28:19;22.00;;;11.13;;
47089;SDS011;32840;52.516;13.294;2022-11-20T15:31:09;17.80;;;10.98;;
47089;SDS011;32840;52.516;13.294;2022-11-20T15:33:56;18.95;;;11.05;;
47089;SDS011;32840;52.516;13.294;2022-11-20T15:36:42;17.30;;;10.52;;
47089;SDS011;32840;52.516;13.294;2022-11-20T15:39:27;15.27;;;9.27;;
47089;SDS011;32840;52.516;13.294;2022-11-20T15:42:12;20.77;;;10.90;;
47089;SDS011;32840;52.516;13.294;2022-11-20T15:44:57;18.73;;;10.60;;
47089;SDS011;32840;52.516;13.294;2022-11-20T15:47:42;16.10;;;9.27;;
47089;SDS011;32840;52.516;13.294;2022-11-20T15:50:27;16.00;;;9.68;;
47089;SDS011;32840;52.516;13.294;2022-11-20T15:53:19;17.05;;;10.48;;
47089;SDS011;32840;52.516;13.294;2022-11-20T15:56:04;18.52;;;10.18;;
47089;SDS011;32840;52.516;13.294;2022-11-20T15:58:49;20.25;;;10.77;;
47089;SDS011;32840;52.516;13.294;2022-11-20T16:01:34;19.52;;;10.23;;
47089;SDS011;32840;52.516;13.294;2022-11-20T16:04:19;17.58;;;10.02;;
47089;SDS011;32840;52.516;13.294;2022-11-20T16:07:04;16.42;;;9.30;;
47089;SDS011;32840;52.516;13.294;2022-11-20T16:09:49;17.50;;;10.23;;
47089;SDS011;32840;52.516;13.294;2022-11-20T16:12:34;16.83;;;9.43;;
47089;SDS011;32840;52.516;13.294;2022-11-20T16:15:37;18.73;;;10.57;;
47089;SDS011;32840;52.516;13.294;2022-11-20T16:18:31;19.95;;;10.52;;
47089;SDS011;32840;52.516;13.294;2022-11-20T16:21:16;20.73;;;11.70;;
47089;SDS011;32840;52.516;13.294;2022-11-20T16:24:02;19.67;;;10.57;;
47089;SDS011;32840;52.516;13.294;2022-11-20T16:26:48;22.70;;;11.85;;
47089;SDS011;32840;52.516;13.294;2022-11-20T16:29:33;20.65;;;10.00;;
47089;SDS011;32840;52.516;13.294;2022-11-20T16:32:18;19.40;;;9.75;;
47089;SDS011;32840;52.516;13.294;2022-11-20T16:35:03;15.23;;;9.18;;
47089;SDS011;32840;52.516;13.294;2022-11-20T16:37:48;16.65;;;10.13;;
47089;SDS011;32840;52.516;13.294;2022-11-20T16:40:33;26.75;;;13.40;;
47089;SDS011;32840;52.516;13.294;2022-11-20T16:43:18;19.30;;;10.90;;
47089;SDS011;32840;52.516;13.294;2022-11-20T16:46:03;17.65;;;10.85;;
47089;SDS011;32840;52.516;13.294;2022-11-20T16:48:52;17.27;;;9.27;;
47089;SDS011;32840;52.516;13.294;2022-11-20T16:51:38;16.15;;;9.77;;
47089;SDS011;32840;52.516;13.294;2022-11-20T16:54:23;16.42;;;9.50;;
47089;SDS011;32840;52.516;13.294;2022-11-20T16:57:08;23.88;;;12.77;;
47089;SDS011;32840;52.516;13.294;2022-11-20T16:59:53;18.73;;;10.13;;
47089;SDS011;32840;52.516;13.294;2022-11-20T17:02:38;17.33;;;9.68;;
47089;SDS011;32840;52.516;13.294;2022-11-20T17:05:23;15.90;;;9.95;;
47089;SDS011;32840;52.516;13.294;2022-11-20T17:08:08;18.17;;;9.68;;
47089;SDS011;32840;52.516;13.294;2022-11-20T17:10:53;16.25;;;10.13;;
47089;SDS011;32840;52.516;13.294;2022-11-20T17:13:38;19.17;;;10.93;;
47089;SDS011;32840;52.516;13.294;2022-11-20T17:16:23;16.08;;;10.35;;
47089;SDS011;32840;52.516;13.294;2022-11-20T17:19:08;18.55;;;9.93;;
47089;SDS011;32840;52.516;13.294;2022-11-20T17:21:53;17.27;;;9.55;;
47089;SDS011;32840;52.516;13.294;2022-11-20T17:24:38;16.45;;;10.13;;
47089;SDS011;32840;52.516;13.294;2022-11-20T17:27:23;17.38;;;10.75;;
47089;SDS011;32840;52.516;13.294;2022-11-20T17:30:08;17.95;;;10.13;;
47089;SDS011;32840;52.516;13.294;2022-11-20T17:32:52;21.27;;;10.80;;
47089;SDS011;32840;52.516;13.294;2022-11-20T17:35:37;19.30;;;10.88;;
47089;SDS011;32840;52.516;13.294;2022-11-20T17:38:22;21.13;;;9.90;;
47089;SDS011;32840;52.516;13.294;2022-11-20T17:41:08;17.67;;;10.45;;
47089;SDS011;32840;52.516;13.294;2022-11-20T17:43:54;17.95;;;10.35;;
47089;SDS011;32840;52.516;13.294;2022-11-20T17:46:40;18.58;;;10.40;;
47089;SDS011;32840;52.516;13.294;2022-11-20T17:49:24;18.45;;;11.35;;
47089;SDS011;32840;52.516;13.294;2022-11-20T17:52:09;21.20;;;9.77;;
47089;SDS011;32840;52.516;13.294;2022-11-20T17:54:54;17.42;;;10.18;;
47089;SDS011;32840;52.516;13.294;2022-11-20T17:57:41;19.30;;;11.48;;
47089;SDS011;32840;52.516;13.294;2022-11-20T18:00:39;16.98;;;10.35;;
47089;SDS011;32840;52.516;13.294;2022-11-20T18:03:24;16.02;;;9.57;;